createdAt,value
2022-08-07T00:00:56.804Z,41.06
2022-08-07T00:03:36.735Z,41.16
2022-08-07T00:06:02.261Z,41.25
2022-08-07T00:08:32.942Z,41.40
2022-08-07T00:11:03.221Z,41.08
2022-08-07T00:13:35.549Z,40.95
2022-08-07T00:16:07.567Z,41.15
2022-08-07T00:18:37.415Z,41.16
2022-08-07T00:21:57.260Z,40.90
2022-08-07T00:23:42.292Z,40.84
2022-08-07T00:26:18.588Z,40.46
2022-08-07T00:28:56.774Z,40.58
2022-08-07T00:31:37.558Z,40.58
2022-08-07T00:34:08.949Z,40.62
2022-08-07T00:36:42.745Z,40.53
2022-08-07T00:39:12.886Z,40.63
2022-08-07T00:41:45.371Z,40.30
2022-08-07T00:44:15.145Z,40.54
2022-08-07T00:46:45.110Z,40.61
2022-08-07T00:49:24.950Z,40.45
2022-08-07T00:51:56.739Z,40.18
2022-08-07T00:54:22.503Z,40.06
2022-08-07T00:56:52.476Z,40.22
2022-08-07T01:02:13.966Z,40.13
2022-08-07T01:04:47.414Z,40.32
2022-08-07T01:07:18.223Z,40.02
2022-08-07T01:10:05.812Z,39.89
2022-08-07T01:12:29.894Z,40.07
2022-08-07T01:14:51.096Z,40.21
2022-08-07T01:17:22.549Z,40.02
2022-08-07T01:19:54.473Z,39.82
2022-08-07T01:22:29.493Z,39.74
2022-08-07T01:24:55.740Z,39.76
2022-08-07T01:27:31.984Z,39.71
2022-08-07T01:29:56.997Z,40.17
2022-08-07T01:32:27.068Z,39.81
2022-08-07T01:34:57.235Z,39.67
2022-08-07T01:37:27.263Z,39.44
2022-08-07T01:40:00.024Z,39.52
2022-08-07T01:42:37.844Z,39.90
2022-08-07T01:45:03.340Z,39.73
2022-08-07T01:48:19.604Z,39.44
2022-08-07T01:50:11.276Z,39.26
2022-08-07T01:52:49.601Z,39.17
2022-08-07T01:55:21.996Z,39.42
2022-08-07T01:58:06.136Z,39.85
2022-08-07T02:00:18.843Z,39.39
2022-08-07T02:03:19.274Z,39.23
2022-08-07T02:05:43.344Z,39.15
2022-08-07T02:08:14.021Z,39.25
2022-08-07T02:10:45.076Z,39.74
2022-08-07T02:13:19.583Z,39.24
2022-08-07T02:15:51.012Z,39.05
2022-08-07T02:18:25.917Z,38.86
2022-08-07T02:20:57.433Z,38.75
2022-08-07T02:23:30.206Z,39.30
2022-08-07T02:26:31.267Z,39.06
2022-08-07T02:28:48.345Z,38.87
2022-08-07T02:31:28.871Z,38.66
2022-08-07T02:34:01.936Z,38.45
2022-08-07T02:36:33.049Z,38.98
2022-08-07T02:39:16.022Z,39.55
2022-08-07T02:41:37.106Z,39.49
2022-08-07T02:44:09.180Z,39.32
2022-08-07T02:46:46.738Z,39.37
2022-08-07T02:49:28.861Z,39.47
2022-08-07T02:51:52.175Z,39.87
2022-08-07T02:54:22.008Z,39.46
2022-08-07T02:56:53.583Z,39.13
2022-08-07T02:59:27.927Z,38.86
2022-08-07T03:02:02.534Z,38.89
2022-08-07T03:04:32.906Z,38.92
2022-08-07T03:07:10.476Z,39.11
2022-08-07T03:09:43.495Z,39.28
2022-08-07T03:12:22.357Z,39.33
2022-08-07T03:14:52.607Z,39.33
2022-08-07T03:17:24.205Z,39.52
2022-08-07T03:19:54.966Z,39.72
2022-08-07T03:22:29.404Z,39.81
2022-08-07T03:24:57.499Z,39.91
2022-08-07T03:27:30.694Z,39.99
2022-08-07T03:30:03.789Z,39.92
2022-08-07T03:32:37.523Z,39.74
2022-08-07T03:35:17.650Z,39.59
2022-08-07T03:37:53.777Z,39.41
2022-08-07T03:40:18.467Z,39.42
2022-08-07T03:42:54.932Z,39.58
2022-08-07T03:45:30.804Z,39.69
2022-08-07T03:48:01.959Z,39.80
2022-08-07T03:50:43.267Z,39.75
2022-08-07T03:53:12.413Z,39.55
2022-08-07T03:55:58.109Z,39.57
2022-08-07T03:58:33.238Z,40.12
2022-08-07T04:00:53.299Z,40.19
2022-08-07T04:03:26.451Z,40.11
2022-08-07T04:05:58.717Z,40.04
2022-08-07T04:08:35.064Z,39.86
2022-08-07T04:12:15.707Z,39.66
2022-08-07T04:14:10.430Z,39.68
2022-08-07T04:16:14.995Z,39.82
2022-08-07T04:18:59.573Z,39.90
2022-08-07T04:21:16.930Z,39.93
2022-08-07T04:24:03.736Z,39.96
2022-08-07T04:26:22.950Z,39.86
2022-08-07T04:28:54.564Z,40.07
2022-08-07T04:32:02.125Z,40.09
2022-08-07T04:33:58.859Z,40.09
2022-08-07T04:36:28.702Z,40.07
2022-08-07T04:38:59.408Z,40.09
2022-08-07T04:41:30.668Z,40.06
2022-08-07T04:44:13.172Z,39.84
2022-08-07T04:46:59.639Z,39.73
2022-08-07T04:49:29.287Z,39.80
2022-08-07T04:52:08.967Z,39.89
2022-08-07T04:54:53.981Z,39.99
2022-08-07T04:58:14.423Z,40.05
2022-08-07T05:00:18.782Z,40.01
2022-08-07T05:02:54.395Z,39.86
2022-08-07T05:05:53.027Z,40.69
2022-08-07T05:08:07.142Z,40.25
2022-08-07T05:10:44.283Z,40.19
2022-08-07T05:14:55.125Z,40.16
2022-08-07T05:16:11.250Z,40.16
2022-08-07T05:18:53.462Z,40.13
2022-08-07T05:21:59.781Z,39.99
2022-08-07T05:24:12.121Z,39.77
2022-08-07T05:26:41.901Z,39.83
2022-08-07T05:29:16.892Z,39.94
2022-08-07T05:31:47.459Z,39.99
2022-08-07T05:34:21.290Z,40.07
2022-08-07T05:36:56.218Z,40.42
2022-08-07T05:40:16.880Z,41.03
2022-08-07T05:42:00.499Z,40.92
2022-08-07T05:44:29.375Z,40.81
2022-08-07T05:47:00.347Z,40.76
2022-08-07T05:49:40.841Z,40.75
2022-08-07T05:52:03.206Z,40.74
2022-08-07T05:54:53.853Z,40.79
2022-08-07T05:57:06.354Z,40.83
2022-08-07T05:59:55.767Z,41.64
2022-08-07T06:02:22.597Z,41.51
2022-08-07T06:04:51.359Z,41.38
2022-08-07T06:07:23.036Z,41.25
2022-08-07T06:10:05.792Z,41.19
2022-08-07T06:12:31.917Z,41.18
2022-08-07T06:14:58.700Z,41.16
2022-08-07T06:17:31.904Z,41.15
2022-08-07T06:20:04.010Z,41.21
2022-08-07T06:22:31.729Z,41.97
2022-08-07T06:25:03.029Z,41.71
2022-08-07T06:28:00.434Z,41.45
2022-08-07T06:30:04.985Z,41.36
2022-08-07T06:32:34.942Z,41.36
2022-08-07T06:35:17.841Z,41.33
2022-08-07T06:37:43.846Z,41.35
2022-08-07T06:40:16.174Z,41.34
2022-08-07T06:42:41.670Z,41.52
2022-08-07T06:45:17.971Z,42.36
2022-08-07T06:47:48.177Z,42.02
2022-08-07T06:50:16.486Z,41.75
2022-08-07T06:52:52.965Z,41.52
2022-08-07T06:56:00.153Z,41.51
2022-08-07T06:58:04.537Z,41.52
2022-08-07T07:00:38.189Z,41.51
2022-08-07T07:03:10.794Z,41.52
2022-08-07T07:06:02.384Z,41.72
2022-08-07T07:08:18.277Z,42.26
2022-08-07T07:10:47.639Z,42.24
2022-08-07T07:13:55.743Z,42.09
2022-08-07T07:15:51.955Z,41.79
2022-08-07T07:18:33.097Z,41.79
2022-08-07T07:21:13.437Z,41.71
2022-08-07T07:24:09.725Z,41.71
2022-08-07T07:26:31.382Z,41.70
2022-08-07T07:29:40.657Z,41.66
2022-08-07T07:31:39.778Z,41.93
2022-08-07T07:34:10.487Z,42.33
2022-08-07T07:36:41.976Z,42.37
2022-08-07T07:39:13.610Z,42.12
2022-08-07T07:42:02.268Z,41.89
2022-08-07T07:44:21.411Z,41.85
2022-08-07T07:46:54.694Z,41.84
2022-08-07T07:50:33.456Z,41.82
2022-08-07T07:51:57.558Z,41.82
2022-08-07T07:54:21.736Z,41.82
2022-08-07T07:56:53.263Z,41.83
2022-08-07T07:59:24.607Z,41.90
2022-08-07T08:02:01.929Z,42.74
2022-08-07T08:04:27.896Z,42.49
2022-08-07T08:07:00.642Z,42.29
2022-08-07T08:09:29.125Z,42.11
2022-08-07T08:12:02.809Z,41.99
2022-08-07T08:14:36.484Z,41.94
2022-08-07T08:17:55.980Z,41.91
2022-08-07T08:20:17.445Z,41.90
2022-08-07T08:22:32.621Z,41.91
2022-08-07T08:25:42.018Z,41.92
2022-08-07T08:27:57.186Z,41.92
2022-08-07T08:30:24.361Z,41.93
2022-08-07T08:32:58.607Z,41.96
2022-08-07T08:35:39.051Z,41.92
2022-08-07T08:38:04.764Z,42.63
2022-08-07T08:43:13.097Z,42.32
2022-08-07T08:46:00.654Z,42.18
2022-08-07T08:48:35.930Z,42.13
2022-08-07T08:52:12.426Z,42.11
2022-08-07T08:54:19.985Z,42.09
2022-08-07T08:56:50.377Z,42.08
2022-08-07T08:59:26.359Z,42.08
2022-08-07T09:02:13.927Z,42.09
2022-08-07T09:05:02.134Z,42.11
2022-08-07T09:07:58.188Z,42.11
2022-08-07T09:10:49.813Z,41.92
2022-08-07T09:13:36.941Z,42.84
2022-08-07T09:16:26.642Z,42.66
2022-08-07T09:19:03.630Z,42.35
2022-08-07T09:24:29.017Z,42.17
2022-08-07T09:24:59.165Z,42.16
2022-08-07T09:28:00.624Z,42.17
2022-08-07T09:30:16.385Z,42.17
2022-08-07T09:33:05.262Z,42.17
2022-08-07T09:36:01.031Z,42.17
2022-08-07T09:38:57.755Z,42.19
2022-08-07T09:41:58.465Z,42.18
2022-08-07T09:44:32.659Z,42.20
2022-08-07T09:47:50.720Z,42.22
2022-08-07T09:50:02.932Z,42.23
2022-08-07T09:52:33.369Z,42.24
2022-08-07T09:54:51.706Z,42.01
2022-08-07T09:57:46.672Z,43.05
2022-08-07T10:00:18.857Z,42.91
2022-08-07T10:04:06.192Z,42.66
2022-08-07T10:06:01.214Z,42.49
2022-08-07T10:08:46.209Z,42.45
2022-08-07T10:12:01.635Z,42.41
2022-08-07T10:14:40.146Z,42.40
2022-08-07T10:18:02.955Z,42.41
2022-08-07T10:20:30.284Z,42.39
2022-08-07T10:23:07.653Z,42.41
2022-08-07T10:25:46.399Z,42.41
2022-08-07T10:28:35.370Z,42.40
2022-08-07T10:31:45.295Z,42.40
2022-08-07T10:34:38.166Z,42.39
2022-08-07T10:37:48.876Z,42.66
2022-08-07T10:40:14.701Z,42.52
2022-08-07T10:42:56.064Z,43.01
2022-08-07T10:45:57.630Z,42.78
2022-08-07T10:48:34.738Z,42.56
2022-08-07T10:51:16.637Z,42.52
2022-08-07T10:54:21.890Z,42.50
2022-08-07T10:57:34.684Z,42.51
2022-08-07T11:00:09.069Z,42.49
2022-08-07T11:03:01.496Z,42.48
2022-08-07T11:06:05.057Z,42.47
2022-08-07T11:08:47.446Z,42.48
2022-08-07T11:11:37.571Z,42.46
2022-08-07T11:14:46.081Z,42.50
2022-08-07T11:17:09.102Z,42.52
2022-08-07T11:19:50.453Z,42.52
2022-08-07T11:22:36.072Z,42.52
2022-08-07T11:25:08.996Z,42.54
2022-08-07T11:28:02.554Z,42.52
2022-08-07T11:30:41.509Z,42.54
2022-08-07T11:33:14.252Z,42.21
2022-08-07T11:35:59.504Z,43.30
2022-08-07T11:38:31.262Z,43.20
2022-08-07T11:41:08.037Z,42.99
2022-08-07T11:44:10.658Z,42.86
2022-08-07T11:46:39.831Z,42.76
2022-08-07T11:49:51.228Z,42.74
2022-08-07T11:52:28.981Z,42.74
2022-08-07T11:55:18.899Z,42.69
2022-08-07T11:58:00.166Z,42.70
2022-08-07T12:00:28.553Z,42.70
2022-08-07T12:03:45.104Z,42.70
2022-08-07T12:06:39.808Z,42.69
2022-08-07T12:09:02.199Z,42.69
2022-08-07T12:11:43.286Z,42.70
2022-08-07T12:14:25.798Z,42.71
2022-08-07T12:17:04.318Z,42.67
2022-08-07T12:20:09.496Z,42.66
2022-08-07T12:22:56.392Z,42.66
2022-08-07T12:26:21.360Z,42.66
2022-08-07T12:28:49.590Z,42.68
2022-08-07T12:31:26.240Z,42.70
2022-08-07T12:34:01.971Z,42.73
2022-08-07T12:36:33.102Z,42.74
2022-08-07T12:39:09.447Z,42.76
2022-08-07T12:41:42.869Z,42.76
2022-08-07T12:44:13.317Z,42.78
2022-08-07T12:46:50.957Z,42.80
2022-08-07T12:49:48.567Z,42.80
2022-08-07T12:52:18.185Z,42.83
2022-08-07T12:55:17.703Z,42.86
2022-08-07T12:58:02.068Z,42.87
2022-08-07T13:00:31.062Z,42.91
2022-08-07T13:03:08.827Z,43.56
2022-08-07T13:06:02.071Z,42.59
2022-08-07T13:08:39.388Z,42.85
2022-08-07T13:12:02.213Z,43.92
2022-08-07T13:14:32.828Z,43.69
2022-08-07T13:17:07.942Z,44.14
2022-08-07T13:19:51.538Z,42.87
2022-08-07T13:22:35.772Z,44.53
2022-08-07T13:25:08.303Z,44.08
2022-08-07T13:28:11.161Z,43.82
2022-08-07T13:30:43.480Z,44.17
2022-08-07T13:33:46.032Z,43.12
2022-08-07T13:36:00.765Z,44.57
2022-08-07T13:38:43.839Z,43.69
2022-08-07T13:41:33.366Z,43.38
2022-08-07T13:44:10.626Z,43.36
2022-08-07T13:46:49.712Z,43.34
2022-08-07T13:52:25.943Z,44.41
2022-08-07T14:00:26.802Z,43.70
2022-08-07T14:03:01.638Z,45.31
2022-08-07T14:05:38.546Z,44.69
2022-08-07T14:08:10.815Z,43.81
2022-08-07T14:10:43.739Z,43.53
2022-08-07T14:13:18.098Z,43.92
2022-08-07T14:15:56.874Z,43.81
2022-08-07T14:18:37.469Z,45.06
2022-08-07T14:21:21.149Z,44.63
2022-08-07T14:24:02.259Z,44.48
2022-08-07T14:26:58.062Z,44.69
2022-08-07T14:30:09.413Z,43.73
2022-08-07T14:32:08.313Z,45.20
2022-08-07T14:34:46.073Z,44.55
2022-08-07T14:37:16.415Z,44.07
2022-08-07T14:40:18.148Z,43.96
2022-08-07T14:42:22.492Z,44.11
2022-08-07T14:44:59.523Z,45.25
2022-08-07T14:47:32.842Z,45.16
2022-08-07T14:50:06.019Z,44.98
2022-08-07T14:52:39.949Z,44.77
2022-08-07T14:55:11.727Z,44.60
2022-08-07T14:57:58.477Z,44.74
2022-08-07T15:00:29.845Z,45.16
2022-08-07T15:02:57.003Z,44.49
2022-08-07T15:05:26.089Z,44.29
2022-08-07T15:07:56.407Z,44.46
2022-08-07T15:10:29.898Z,44.57
2022-08-07T15:13:11.703Z,45.76
2022-08-07T15:15:52.215Z,45.48
2022-08-07T15:18:33.986Z,44.73
2022-08-07T15:20:55.597Z,44.20
2022-08-07T15:26:04.228Z,45.99
2022-08-07T15:31:12.289Z,45.38
2022-08-07T15:33:43.783Z,44.88
2022-08-07T15:36:13.807Z,44.88
2022-08-07T15:41:23.748Z,45.87
2022-08-07T15:44:03.231Z,45.75
2022-08-07T15:46:45.900Z,45.35
2022-08-07T15:49:13.056Z,45.19
2022-08-07T15:54:12.367Z,45.18
2022-08-07T15:56:42.500Z,46.21
2022-08-07T15:59:17.237Z,45.63
2022-08-07T16:02:01.978Z,44.89
2022-08-07T16:04:26.056Z,44.54
2022-08-07T16:06:57.746Z,45.18
2022-08-07T16:09:48.477Z,45.56
2022-08-07T16:12:29.227Z,46.40
2022-08-07T16:15:04.570Z,46.00
2022-08-07T16:18:01.890Z,45.17
2022-08-07T16:20:56.767Z,45.31
2022-08-07T16:23:53.596Z,45.90
2022-08-07T16:26:30.439Z,45.87
2022-08-07T16:29:18.719Z,45.71
2022-08-07T16:32:06.769Z,45.64
2022-08-07T16:35:01.484Z,45.91
2022-08-07T16:38:05.230Z,45.47
2022-08-07T16:41:01.726Z,46.22
2022-08-07T16:44:02.484Z,45.35
2022-08-07T16:47:04.833Z,44.70
2022-08-07T16:50:27.540Z,45.27
2022-08-07T16:52:49.270Z,46.47
2022-08-07T16:55:17.467Z,46.25
2022-08-07T16:58:08.319Z,46.08
2022-08-07T17:00:43.031Z,45.38
2022-08-07T17:03:17.388Z,45.32
2022-08-07T17:06:28.213Z,46.42
2022-08-07T17:09:09.605Z,45.45
2022-08-07T17:11:18.572Z,44.88
2022-08-07T17:14:19.091Z,44.71
2022-08-07T17:16:58.528Z,45.64
2022-08-07T17:20:03.197Z,45.35
2022-08-07T17:22:16.911Z,46.13
2022-08-07T17:25:18.514Z,45.72
2022-08-07T17:28:19.781Z,45.13
2022-08-07T17:31:15.941Z,45.50
2022-08-07T17:34:17.914Z,45.43
2022-08-07T17:36:20.364Z,44.83
2022-08-07T17:39:15.424Z,44.57
2022-08-07T17:42:01.979Z,44.63
2022-08-07T17:44:34.164Z,45.60
2022-08-07T17:47:16.986Z,45.02
2022-08-07T17:50:03.602Z,45.91
2022-08-07T17:52:42.933Z,45.52
2022-08-07T17:56:01.172Z,44.92
2022-08-07T17:58:01.427Z,45.37
2022-08-07T18:00:34.712Z,45.56
2022-08-07T18:03:09.341Z,44.98
2022-08-07T18:06:03.058Z,44.67
2022-08-07T18:08:26.146Z,44.65
2022-08-07T18:12:07.517Z,45.11
2022-08-07T18:14:09.580Z,45.37
2022-08-07T18:16:57.434Z,45.85
2022-08-07T18:21:07.958Z,45.49
2022-08-07T18:22:28.607Z,44.89
2022-08-07T18:25:00.943Z,44.57
2022-08-07T18:27:55.041Z,44.81
2022-08-07T18:30:43.408Z,45.72
2022-08-07T18:33:35.446Z,44.84
2022-08-07T18:36:32.752Z,44.34
2022-08-07T18:40:07.165Z,43.89
2022-08-07T18:42:17.523Z,44.66
2022-08-07T18:45:43.559Z,44.43
2022-08-07T18:48:00.830Z,44.24
2022-08-07T18:50:44.062Z,44.28
2022-08-07T18:53:14.684Z,44.92
2022-08-07T18:55:55.876Z,45.09
2022-08-07T18:58:43.284Z,45.56
2022-08-07T19:02:18.017Z,45.43
2022-08-07T19:04:28.106Z,44.76
2022-08-07T19:06:57.396Z,44.19
2022-08-07T19:09:57.350Z,44.89
2022-08-07T19:12:18.846Z,44.83
2022-08-07T19:16:03.178Z,44.23
2022-08-07T19:18:16.777Z,43.81
2022-08-07T19:21:08.932Z,43.43
2022-08-07T19:23:58.308Z,44.22
2022-08-07T19:26:29.208Z,44.41
2022-08-07T19:31:06.120Z,44.01
2022-08-07T19:32:03.517Z,43.59
2022-08-07T19:34:06.251Z,43.15
2022-08-07T19:36:44.600Z,43.84
2022-08-07T19:39:17.141Z,44.03
2022-08-07T19:42:08.543Z,43.42
2022-08-07T19:44:22.470Z,43.16
2022-08-07T19:46:55.633Z,43.24
2022-08-07T19:49:56.507Z,44.03
2022-08-07T19:52:00.638Z,44.32
2022-08-07T19:54:34.343Z,44.06
2022-08-07T19:58:02.924Z,44.94
2022-08-07T19:59:41.182Z,44.47
2022-08-07T20:02:15.314Z,43.96
2022-08-07T20:04:45.190Z,44.52
2022-08-07T20:07:23.776Z,44.74
2022-08-07T20:10:34.130Z,43.96
2022-08-07T20:12:34.547Z,43.65
2022-08-07T20:14:58.336Z,43.33
2022-08-07T20:17:29.064Z,43.51
2022-08-07T20:20:00.669Z,43.73
2022-08-07T20:25:28.612Z,43.50
2022-08-07T20:28:03.553Z,43.14
2022-08-07T20:30:36.970Z,42.88
2022-08-07T20:33:36.557Z,43.47
2022-08-07T20:35:51.962Z,43.68
2022-08-07T20:38:23.315Z,43.23
2022-08-07T20:40:58.504Z,42.98
2022-08-07T20:43:32.367Z,42.66
2022-08-07T20:46:25.922Z,43.04
2022-08-07T20:48:36.670Z,43.08
2022-08-07T20:51:09.725Z,43.37
2022-08-07T20:54:03.729Z,42.78
2022-08-07T20:56:12.809Z,42.50
2022-08-07T20:58:44.235Z,42.48
2022-08-07T21:01:19.742Z,43.03
2022-08-07T21:04:13.121Z,43.08
2022-08-07T21:06:28.501Z,42.93
2022-08-07T21:09:03.460Z,42.57
2022-08-07T21:11:50.295Z,42.35
2022-08-07T21:14:31.667Z,42.57
2022-08-07T21:18:01.125Z,42.80
2022-08-07T21:19:51.357Z,42.69
2022-08-07T21:22:06.937Z,42.27
2022-08-07T21:24:47.978Z,42.08
2022-08-07T21:27:40.044Z,42.13
2022-08-07T21:30:10.404Z,42.55
2022-08-07T21:33:07.162Z,42.72
2022-08-07T21:36:12.000Z,42.24
2022-08-07T21:38:50.055Z,42.04
2022-08-07T21:41:28.307Z,41.97
2022-08-07T21:44:28.303Z,42.39
2022-08-07T21:46:51.781Z,42.25
2022-08-07T21:49:40.818Z,41.96
2022-08-07T21:52:11.622Z,41.75
2022-08-07T21:55:01.252Z,41.54
2022-08-07T21:57:44.411Z,42.06
2022-08-07T22:00:22.396Z,42.35
2022-08-07T22:02:45.588Z,41.90
2022-08-07T22:05:43.946Z,41.64
2022-08-07T22:07:59.496Z,41.52
2022-08-07T22:10:26.272Z,41.94
2022-08-07T22:13:05.705Z,42.06
2022-08-07T22:16:43.510Z,41.75
2022-08-07T22:18:37.407Z,41.51
2022-08-07T22:21:21.262Z,41.46
2022-08-07T22:24:05.909Z,41.43
2022-08-07T22:26:52.515Z,41.88
2022-08-07T22:29:47.450Z,41.83
2022-08-07T22:32:20.526Z,41.41
2022-08-07T22:34:56.066Z,41.25
2022-08-07T22:38:03.255Z,41.13
2022-08-07T22:40:36.983Z,41.52
2022-08-07T22:43:23.424Z,41.63
2022-08-07T22:46:21.812Z,41.33
2022-08-07T22:49:01.436Z,41.19
2022-08-07T22:51:43.895Z,41.28
2022-08-07T22:54:26.916Z,41.93
2022-08-07T22:57:12.674Z,42.62
2022-08-07T22:59:51.991Z,42.45
2022-08-07T23:02:27.638Z,42.00
2022-08-07T23:06:08.625Z,41.81
2022-08-07T23:08:22.173Z,42.14
2022-08-07T23:11:13.244Z,42.23
2022-08-07T23:14:15.540Z,42.03
2022-08-07T23:16:48.349Z,41.97
2022-08-07T23:19:51.446Z,42.23
2022-08-07T23:22:52.334Z,42.52
2022-08-07T23:25:49.600Z,43.01
2022-08-07T23:28:29.129Z,42.26
2022-08-07T23:32:49.567Z,41.85
2022-08-07T23:34:20.215Z,41.89
2022-08-07T23:37:19.964Z,42.17
2022-08-07T23:39:41.155Z,41.86
2022-08-07T23:42:43.490Z,41.53
2022-08-07T23:45:33.413Z,41.43
2022-08-07T23:48:03.027Z,42.22
2022-08-07T23:50:38.765Z,42.21
2022-08-07T23:53:17.271Z,43.06
2022-08-07T23:55:55.877Z,42.58
2022-08-07T23:58:35.660Z,42.05
